Time;durP1;ratioP1;P1;durP2;ratioP2;P2;SDS_P1;SDS_P2;PMS_P1;PMS_P2;Temp;Humidity;BMP_temperature;BMP_pressure;BME280_temperature;BME280_humidity;BME280_pressure;Samples;Min_cycle;Max_cycle;Signal;HPM_P1;HPM_P2
2023/10/28 00:00:43;;;;;;;17.37;8.70;;;;;;;-141.97;nan;47715.13;5032822;28;20633;-85
2023/10/28 00:03:08;;;;;;;16.97;8.73;;;;;;;-141.97;nan;47790.09;5032300;28;20166;-84
2023/10/28 00:05:33;;;;;;;19.03;8.60;;;;;;;-141.97;nan;47815.09;5013827;28;20599;-84
2023/10/28 00:07:59;;;;;;;16.87;8.50;;;;;;;-141.97;nan;47722.81;5017470;28;20177;-85
2023/10/28 00:10:25;;;;;;;15.17;8.60;;;;;;;-141.97;nan;47638.25;5022663;28;20549;-84
2023/10/28 00:12:50;;;;;;;19.37;8.53;;;;;;;-141.97;nan;47742.03;5032912;28;20228;-84
2023/10/28 00:15:18;;;;;;;17.63;8.50;;;;;;;-141.97;nan;47701.69;5033633;28;20174;-87
2023/10/28 00:17:47;;;;;;;18.87;8.30;;;;;;;-141.97;nan;47638.25;5049912;28;20189;-86
2023/10/28 00:20:19;;;;;;;15.70;7.83;;;;;;;-141.97;nan;47826.63;5051240;28;20572;-87
2023/10/28 00:22:46;;;;;;;18.30;8.57;;;;;;;-141.97;nan;47786.25;5015382;28;20245;-87
2023/10/28 00:25:13;;;;;;;17.33;8.67;;;;;;;-141.97;nan;47742.03;5014607;28;20177;-84
2023/10/28 00:27:40;;;;;;;16.10;8.37;;;;;;;-141.97;nan;47742.03;5030504;28;20178;-84
2023/10/28 00:30:10;;;;;;;17.67;8.57;;;;;;;-141.97;nan;47742.03;5031857;28;20158;-84
2023/10/28 00:32:39;;;;;;;16.27;8.03;;;;;;;-141.97;nan;47742.03;5050710;28;20208;-84
2023/10/28 00:35:08;;;;;;;14.93;7.87;;;;;;;-141.97;nan;47615.19;5050844;28;20172;-85
2023/10/28 00:37:35;;;;;;;19.20;8.70;;;;;;;-141.97;nan;47726.66;5048537;28;20180;-86
2023/10/28 00:40:01;;;;;;;16.00;8.37;;;;;;;-141.97;nan;47715.13;5013534;28;20170;-86
2023/10/28 00:42:26;;;;;;;15.47;8.90;;;;;;;-141.97;nan;47790.09;5012980;28;20686;-86
2023/10/28 00:44:55;;;;;;;14.70;8.60;;;;;;;-141.97;nan;47759.34;5031725;28;20231;-84
2023/10/28 00:47:23;;;;;;;17.80;9.30;;;;;;;-141.97;nan;47722.81;5032343;28;20623;-84
2023/10/28 00:49:51;;;;;;;15.10;9.07;;;;;;;-141.97;nan;47717.06;5030633;28;20189;-84
2023/10/28 00:52:19;;;;;;;15.30;9.10;;;;;;;-141.97;nan;47655.53;5012951;28;20622;-82
2023/10/28 00:54:47;;;;;;;19.03;9.67;;;;;;;-141.97;nan;47688.22;5013466;28;20166;-83
2023/10/28 00:57:15;;;;;;;21.67;9.40;;;;;;;-141.97;nan;47649.78;5030574;28;20166;-82
2023/10/28 00:59:41;;;;;;;16.63;8.93;;;;;;;-141.97;nan;47715.13;5013115;28;20178;-82
2023/10/28 01:02:06;;;;;;;17.67;9.30;;;;;;;-141.97;nan;47753.56;5019046;28;20172;-82
2023/10/28 01:04:31;;;;;;;16.53;8.97;;;;;;;-141.97;nan;47672.84;5036924;28;20284;-83
2023/10/28 01:06:57;;;;;;;17.43;9.20;;;;;;;-141.97;nan;47755.50;5037191;28;20174;-82
2023/10/28 01:09:22;;;;;;;18.00;9.50;;;;;;;-141.97;nan;47717.06;5024612;28;20270;-83
2023/10/28 01:11:48;;;;;;;21.77;10.67;;;;;;;-141.97;nan;47680.53;5018580;28;20221;-83
2023/10/28 01:14:13;;;;;;;19.27;9.00;;;;;;;-141.97;nan;47707.44;5036640;28;20274;-83
2023/10/28 01:16:40;;;;;;;18.50;9.77;;;;;;;-141.97;nan;47738.19;5036933;28;20216;-87
2023/10/28 01:19:06;;;;;;;21.97;9.40;;;;;;;-141.97;nan;47642.09;5036135;28;20559;-85
2023/10/28 01:21:31;;;;;;;18.33;9.50;;;;;;;-141.97;nan;47661.31;5036670;28;20176;-85
2023/10/28 01:23:57;;;;;;;17.63;10.00;;;;;;;-141.97;nan;47634.41;5019674;28;20257;-86
2023/10/28 01:26:22;;;;;;;18.63;9.67;;;;;;;-141.97;nan;47763.19;5019058;28;20257;-85
2023/10/28 01:28:48;;;;;;;19.73;10.40;;;;;;;-141.97;nan;47699.75;5036927;28;20186;-85
2023/10/28 01:31:14;;;;;;;20.63;10.10;;;;;;;-141.97;nan;47718.97;5029542;28;20177;-85
2023/10/28 01:33:40;;;;;;;21.87;9.90;;;;;;;-141.97;nan;47659.38;5038957;28;20717;-85
2023/10/28 01:36:05;;;;;;;30.90;12.53;;;;;;;-141.97;nan;47711.28;5038826;28;20173;-85
2023/10/28 01:38:32;;;;;;;20.50;11.03;;;;;;;-141.97;nan;47611.34;5046564;28;20176;-85
2023/10/28 01:40:57;;;;;;;17.60;10.40;;;;;;;-141.97;nan;47580.59;5036342;28;20181;-86
2023/10/28 01:43:23;;;;;;;24.73;10.63;;;;;;;-141.97;nan;47699.75;5037112;28;20469;-85
2023/10/28 01:45:48;;;;;;;20.53;10.30;;;;;;;-141.97;nan;47815.09;5037216;28;20193;-84
2023/10/28 01:48:14;;;;;;;20.30;10.27;;;;;;;-141.97;nan;47684.38;5018937;28;20170;-84
2023/10/28 01:50:41;;;;;;;21.03;11.43;;;;;;;-141.97;nan;47759.34;5019707;28;20254;-82
2023/10/28 01:53:06;;;;;;;22.03;10.77;;;;;;;-141.97;nan;47728.59;5037627;28;20732;-83
2023/10/28 01:55:32;;;;;;;23.13;10.53;;;;;;;-141.97;nan;47718.97;5019161;28;20182;-82
2023/10/28 01:57:57;;;;;;;26.57;12.93;;;;;;;-141.97;nan;47747.81;5019170;28;20264;-83
2023/10/28 02:00:26;;;;;;;26.57;12.27;;;;;;;-141.97;nan;47594.03;5018664;28;20240;-83
2023/10/28 02:02:52;;;;;;;22.23;12.10;;;;;;;-141.97;nan;47697.84;5019091;28;20932;-82
2023/10/28 02:05:17;;;;;;;18.20;10.60;;;;;;;-141.97;nan;47665.16;5038828;28;20244;-83
2023/10/28 02:07:43;;;;;;;20.83;10.30;;;;;;;-141.97;nan;47724.75;5039783;28;20226;-83
2023/10/28 02:10:09;;;;;;;19.07;10.20;;;;;;;-141.97;nan;47818.94;5040005;28;20193;-83
2023/10/28 02:12:35;;;;;;;19.07;10.10;;;;;;;-141.97;nan;47722.81;5038936;28;20193;-83
2023/10/28 02:15:05;;;;;;;20.13;10.03;;;;;;;-141.97;nan;47742.03;5034830;28;20239;-84
2023/10/28 02:17:31;;;;;;;16.60;9.70;;;;;;;-141.97;nan;47638.25;5034140;28;20245;-89
2023/10/28 02:19:57;;;;;;;17.30;10.17;;;;;;;-141.97;nan;47644.00;5015693;28;20938;-86
2023/10/28 02:22:22;;;;;;;21.27;10.27;;;;;;;-141.97;nan;47703.59;5015752;28;20223;-86
2023/10/28 02:24:48;;;;;;;23.93;12.97;;;;;;;-141.97;nan;47630.56;5019646;28;20169;-85
2023/10/28 02:27:13;;;;;;;20.60;10.87;;;;;;;-141.97;nan;47715.13;5036660;28;20170;-85
2023/10/28 02:29:39;;;;;;;23.70;12.90;;;;;;;-141.97;nan;47718.97;5042524;28;20650;-86
2023/10/28 02:32:05;;;;;;;24.07;12.80;;;;;;;-141.97;nan;47657.47;5050252;28;20208;-86
2023/10/28 02:34:31;;;;;;;22.60;12.50;;;;;;;-141.97;nan;47834.31;5054861;28;20185;-85
2023/10/28 02:36:56;;;;;;;27.33;14.20;;;;;;;-141.97;nan;47782.41;5019499;28;20182;-85
2023/10/28 02:39:22;;;;;;;24.60;11.90;;;;;;;-141.97;nan;47657.47;5014078;28;20198;-86
2023/10/28 02:41:47;;;;;;;24.80;11.80;;;;;;;-141.97;nan;47684.38;5041928;28;20213;-85
2023/10/28 02:44:12;;;;;;;21.30;11.63;;;;;;;-141.97;nan;47649.78;5054565;28;20517;-86
2023/10/28 02:46:38;;;;;;;22.90;11.37;;;;;;;-141.97;nan;47847.75;5020974;28;20281;-88
2023/10/28 02:49:04;;;;;;;23.17;11.43;;;;;;;-141.97;nan;47807.41;5033370;28;20240;-86
2023/10/28 02:51:29;;;;;;;24.13;11.33;;;;;;;-141.97;nan;47672.84;5033219;28;20166;-87
2023/10/28 02:53:55;;;;;;;18.93;10.73;;;;;;;-141.97;nan;47832.38;5033051;28;20174;-86
2023/10/28 02:56:21;;;;;;;21.30;11.30;;;;;;;-141.97;nan;47815.09;5033024;28;20169;-87
2023/10/28 02:58:46;;;;;;;24.47;11.53;;;;;;;-141.97;nan;47595.97;5004159;28;20261;-88
2023/10/28 03:01:13;;;;;;;19.17;10.93;;;;;;;-141.97;nan;47707.44;5032396;28;20178;-87
2023/10/28 03:03:39;;;;;;;21.80;11.03;;;;;;;-141.97;nan;47884.28;5032970;28;20170;-83
2023/10/28 03:06:05;;;;;;;19.60;10.73;;;;;;;-141.97;nan;47745.88;5033236;28;20618;-84
2023/10/28 03:08:31;;;;;;;21.50;12.40;;;;;;;-141.97;nan;47663.22;5032765;28;20432;-84
2023/10/28 03:10:56;;;;;;;42.03;20.03;;;;;;;-141.97;nan;47676.69;5032580;28;20694;-83
2023/10/28 03:13:22;;;;;;;49.97;19.23;;;;;;;-141.97;nan;47726.66;5032871;28;20247;-85
2023/10/28 03:15:47;;;;;;;27.77;15.13;;;;;;;-141.97;nan;47843.91;5041385;28;20170;-84
2023/10/28 03:18:13;;;;;;;32.57;14.60;;;;;;;-141.97;nan;47632.47;5017156;28;20272;-84
2023/10/28 03:20:39;;;;;;;33.63;14.63;;;;;;;-141.97;nan;47692.06;5031296;28;20178;-84
2023/10/28 03:23:05;;;;;;;27.40;12.63;;;;;;;-141.97;nan;47711.28;5031776;28;20177;-84
2023/10/28 03:25:31;;;;;;;26.67;12.93;;;;;;;-141.97;nan;47628.63;5031657;28;20197;-85
2023/10/28 03:27:58;;;;;;;24.47;12.33;;;;;;;-141.97;nan;47736.28;5013169;28;20189;-85
2023/10/28 03:30:23;;;;;;;28.00;12.97;;;;;;;-141.97;nan;47736.28;5032438;28;20173;-85
2023/10/28 03:32:49;;;;;;;27.53;12.43;;;;;;;-141.97;nan;47624.78;5013408;28;20194;-85
2023/10/28 03:35:14;;;;;;;23.83;11.37;;;;;;;-141.97;nan;47676.69;5013837;28;20170;-85
2023/10/28 03:37:42;;;;;;;22.70;12.17;;;;;;;-141.97;nan;47638.25;5031336;28;20178;-83
2023/10/28 03:40:08;;;;;;;22.83;12.00;;;;;;;-141.97;nan;47730.50;5013147;28;20177;-83
2023/10/28 03:42:34;;;;;;;26.97;12.50;;;;;;;-141.97;nan;47895.81;5014467;28;20174;-84
2023/10/28 03:44:59;;;;;;;25.10;11.73;;;;;;;-141.97;nan;47726.66;5031809;28;20184;-83
2023/10/28 03:47:25;;;;;;;29.03;12.07;;;;;;;-141.97;nan;47603.66;5015224;28;20178;-84
2023/10/28 03:49:50;;;;;;;27.47;11.83;;;;;;;-141.97;nan;47842.00;5031697;28;20177;-86
2023/10/28 03:52:16;;;;;;;23.30;11.10;;;;;;;-141.97;nan;47822.78;5038617;28;20241;-83
2023/10/28 03:54:41;;;;;;;29.53;12.33;;;;;;;-141.97;nan;47730.50;5013733;28;20178;-84
2023/10/28 03:57:06;;;;;;;26.90;13.23;;;;;;;-141.97;nan;47757.41;5013929;28;20224;-84
2023/10/28 03:59:32;;;;;;;25.87;11.40;;;;;;;-141.97;nan;47847.75;5031473;28;20204;-85
2023/10/28 04:01:58;;;;;;;26.83;11.93;;;;;;;-141.97;nan;47645.94;5014546;28;20178;-86
2023/10/28 04:04:24;;;;;;;29.93;12.00;;;;;;;-141.97;nan;47745.88;5032970;28;20169;-84
2023/10/28 04:06:50;;;;;;;26.60;11.67;;;;;;;-141.97;nan;47665.16;5014891;28;20178;-83
2023/10/28 04:09:15;;;;;;;26.93;11.57;;;;;;;-141.97;nan;47688.22;5004966;28;20245;-84
2023/10/28 04:11:41;;;;;;;25.17;11.67;;;;;;;-141.97;nan;47836.22;5014387;28;20248;-84
2023/10/28 04:14:07;;;;;;;24.13;11.90;;;;;;;-141.97;nan;47690.16;5011218;28;20283;-83
2023/10/28 04:16:32;;;;;;;22.90;10.60;;;;;;;-141.97;nan;47778.56;5012640;28;20570;-83
2023/10/28 04:18:58;;;;;;;20.87;9.93;;;;;;;-141.97;nan;47613.25;5011500;28;20170;-83
2023/10/28 04:21:23;;;;;;;21.77;10.10;;;;;;;-141.97;nan;47815.09;5011009;28;20188;-84
2023/10/28 04:23:48;;;;;;;21.47;10.17;;;;;;;-141.97;nan;47870.81;5012365;28;20163;-83
2023/10/28 04:26:14;;;;;;;21.40;10.10;;;;;;;-141.97;nan;47882.38;5010591;28;20166;-83
2023/10/28 04:28:40;;;;;;;22.83;10.07;;;;;;;-141.97;nan;47705.53;5010663;28;20178;-84
2023/10/28 04:31:05;;;;;;;26.07;10.83;;;;;;;-141.97;nan;47665.16;5019922;28;20256;-84
2023/10/28 04:33:31;;;;;;;20.63;9.97;;;;;;;-141.97;nan;47726.66;5014078;28;20257;-84
2023/10/28 04:35:56;;;;;;;20.50;10.10;;;;;;;-141.97;nan;47795.88;5010921;28;20253;-84
2023/10/28 04:38:22;;;;;;;25.73;11.37;;;;;;;-141.97;nan;47663.22;5010724;28;20181;-84
2023/10/28 04:40:50;;;;;;;23.90;10.67;;;;;;;-141.97;nan;47665.16;5011234;28;20186;-84
2023/10/28 04:43:15;;;;;;;24.73;10.97;;;;;;;-141.97;nan;47615.19;5011711;28;20159;-84
2023/10/28 04:45:44;;;;;;;23.13;10.60;;;;;;;-141.97;nan;47743.97;5010397;28;20881;-84
2023/10/28 04:48:10;;;;;;;24.87;11.00;;;;;;;-141.97;nan;47757.41;5010697;28;20243;-84
2023/10/28 04:50:36;;;;;;;25.77;10.87;;;;;;;-141.97;nan;47888.13;5010593;28;20182;-84
2023/10/28 04:53:02;;;;;;;21.13;11.10;;;;;;;-141.97;nan;47707.44;5010769;28;20201;-84
2023/10/28 04:55:27;;;;;;;25.20;11.03;;;;;;;-141.97;nan;47611.34;5011267;28;20548;-83
2023/10/28 04:57:52;;;;;;;21.73;10.80;;;;;;;-141.97;nan;47742.03;5009958;28;20254;-85
2023/10/28 05:00:19;;;;;;;20.60;10.80;;;;;;;-141.97;nan;47594.03;5009290;28;20186;-84
2023/10/28 05:02:45;;;;;;;29.80;10.90;;;;;;;-141.97;nan;47665.16;5009992;28;20177;-84
2023/10/28 05:05:10;;;;;;;31.57;11.93;;;;;;;-141.97;nan;47701.69;5010695;28;20166;-84
2023/10/28 05:07:36;;;;;;;27.20;14.73;;;;;;;-141.97;nan;47786.25;5010473;28;20193;-85
2023/10/28 05:10:02;;;;;;;25.47;11.60;;;;;;;-141.97;nan;47611.34;5007617;28;20225;-84
2023/10/28 05:12:28;;;;;;;24.77;11.40;;;;;;;-141.97;nan;47834.31;5035406;28;20219;-85
2023/10/28 05:14:54;;;;;;;24.33;11.47;;;;;;;-141.97;nan;47755.50;5012330;28;20757;-84
2023/10/28 05:17:20;;;;;;;24.20;11.60;;;;;;;-141.97;nan;47740.13;5010559;28;20178;-84
2023/10/28 05:19:46;;;;;;;24.70;11.43;;;;;;;-141.97;nan;47715.13;5013728;28;20634;-84
2023/10/28 05:22:11;;;;;;;32.13;11.97;;;;;;;-141.97;nan;47661.31;5012570;28;20167;-84
2023/10/28 05:24:37;;;;;;;28.03;13.43;;;;;;;-141.97;nan;47747.81;5009753;28;20646;-85
2023/10/28 05:27:03;;;;;;;26.30;12.23;;;;;;;-141.97;nan;47620.94;5013772;28;20170;-84
2023/10/28 05:29:29;;;;;;;28.23;11.73;;;;;;;-141.97;nan;47759.34;5010415;28;20635;-84
2023/10/28 05:31:56;;;;;;;26.40;11.73;;;;;;;-141.97;nan;47749.72;5025610;28;20673;-84
2023/10/28 05:34:23;;;;;;;25.40;11.67;;;;;;;-141.97;nan;47799.72;5030764;28;20196;-85
2023/10/28 05:36:50;;;;;;;33.63;12.77;;;;;;;-141.97;nan;47890.06;5015443;28;20187;-85
2023/10/28 05:39:15;;;;;;;129.37;66.20;;;;;;;-141.97;nan;47565.22;5010569;28;20224;-85
2023/10/28 05:41:42;;;;;;;138.70;72.30;;;;;;;-141.97;nan;47630.56;5011970;28;20163;-84
2023/10/28 05:44:07;;;;;;;108.00;52.43;;;;;;;-141.97;nan;47830.47;5013243;28;20178;-84
2023/10/28 05:46:33;;;;;;;118.23;54.07;;;;;;;-141.97;nan;47559.44;5009768;28;20163;-84
2023/10/28 05:49:00;;;;;;;127.93;56.43;;;;;;;-141.97;nan;47757.41;5020334;28;20179;-84
2023/10/28 05:51:25;;;;;;;101.27;45.30;;;;;;;-141.97;nan;47861.22;5032057;28;20178;-84
2023/10/28 05:53:51;;;;;;;86.27;39.20;;;;;;;-141.97;nan;47619.03;5027814;28;20499;-86
2023/10/28 05:56:17;;;;;;;91.53;41.13;;;;;;;-141.97;nan;47734.34;5013835;28;20167;-84
2023/10/28 05:58:42;;;;;;;101.10;48.40;;;;;;;-141.97;nan;47726.66;5012071;28;20626;-84
2023/10/28 06:01:08;;;;;;;94.50;38.87;;;;;;;-141.97;nan;47838.16;5015675;28;20689;-86
2023/10/28 06:03:33;;;;;;;99.27;45.90;;;;;;;-141.97;nan;47724.75;5016516;28;20171;-85
2023/10/28 06:05:59;;;;;;;78.57;35.27;;;;;;;-141.97;nan;47747.81;5014863;28;20769;-84
2023/10/28 06:08:24;;;;;;;62.17;31.37;;;;;;;-141.97;nan;47740.13;5003725;28;20201;-84
2023/10/28 06:10:50;;;;;;;76.93;35.50;;;;;;;-141.97;nan;47655.53;5017290;28;20225;-84
2023/10/28 06:13:15;;;;;;;58.10;32.73;;;;;;;-141.97;nan;47701.69;5028731;28;20295;-85
2023/10/28 06:15:44;;;;;;;45.70;25.67;;;;;;;-141.97;nan;47866.97;5103648;23;20247;-85
2023/10/28 06:18:10;;;;;;;42.17;22.63;;;;;;;-141.97;nan;47669.00;5058786;28;20192;-83
2023/10/28 06:20:35;;;;;;;39.00;18.80;;;;;;;-141.97;nan;47603.66;5067035;28;20225;-85
2023/10/28 06:23:00;;;;;;;30.27;14.63;;;;;;;-141.97;nan;47634.41;5075895;28;20174;-85
2023/10/28 06:25:26;;;;;;;29.43;14.50;;;;;;;-141.97;nan;47743.97;5044591;28;20205;-83
2023/10/28 06:27:51;;;;;;;25.73;13.77;;;;;;;-141.97;nan;47553.69;5055619;28;20205;-84
2023/10/28 06:30:17;;;;;;;26.37;14.00;;;;;;;-141.97;nan;47569.06;5058450;28;20172;-84
2023/10/28 06:32:42;;;;;;;33.87;14.80;;;;;;;-141.97;nan;47834.31;5071528;28;20211;-83
2023/10/28 06:35:08;;;;;;;31.70;14.90;;;;;;;-141.97;nan;47628.63;5094000;28;20375;-85
2023/10/28 06:37:33;;;;;;;23.40;13.17;;;;;;;-141.97;nan;47726.66;5095328;28;20245;-85
2023/10/28 06:39:59;;;;;;;28.93;14.23;;;;;;;-141.97;nan;47565.22;5051501;28;20212;-85
2023/10/28 06:42:24;;;;;;;26.47;13.50;;;;;;;-141.97;nan;47865.06;5036094;28;20173;-83
2023/10/28 06:44:50;;;;;;;27.23;13.60;;;;;;;-141.97;nan;47711.28;5054780;28;20256;-84
2023/10/28 06:47:16;;;;;;;22.73;13.40;;;;;;;-141.97;nan;47695.91;5038979;28;20174;-83
2023/10/28 06:49:42;;;;;;;23.70;12.80;;;;;;;-141.97;nan;47734.34;5037369;28;20188;-83
2023/10/28 06:52:08;;;;;;;29.77;13.70;;;;;;;-141.97;nan;47572.91;5059440;28;20204;-85
2023/10/28 06:54:33;;;;;;;26.63;13.00;;;;;;;-141.97;nan;47703.59;5043847;28;20191;-85
2023/10/28 06:56:59;;;;;;;25.17;12.43;;;;;;;-141.97;nan;47790.09;5037054;28;20188;-84
2023/10/28 06:59:26;;;;;;;24.13;13.07;;;;;;;-141.97;nan;47626.72;5051477;28;20183;-84
2023/10/28 07:01:52;;;;;;;24.17;12.47;;;;;;;-141.97;nan;47549.84;5034756;28;20272;-84
2023/10/28 07:04:17;;;;;;;23.47;13.93;;;;;;;-141.97;nan;47722.81;5050612;28;20180;-85
2023/10/28 07:06:43;;;;;;;27.93;16.07;;;;;;;-141.97;nan;47549.84;5052528;28;20177;-83
2023/10/28 07:09:09;;;;;;;25.97;16.07;;;;;;;-141.97;nan;47611.34;5041195;28;20308;-84
2023/10/28 07:11:34;;;;;;;25.33;15.90;;;;;;;-141.97;nan;47874.69;5035064;28;20177;-84
2023/10/28 07:14:00;;;;;;;53.33;34.33;;;;;;;-141.97;nan;47565.22;5036779;28;20256;-84
2023/10/28 07:16:27;;;;;;;45.40;28.80;;;;;;;-141.97;nan;47628.63;5034529;28;20312;-84
2023/10/28 07:18:52;;;;;;;23.40;12.97;;;;;;;-141.97;nan;47561.38;5052519;28;20165;-83
2023/10/28 07:21:17;;;;;;;19.50;11.37;;;;;;;-141.97;nan;47724.75;5051599;28;20662;-83
2023/10/28 07:23:43;;;;;;;20.77;12.17;;;;;;;-141.97;nan;47692.06;5053217;28;20169;-85
2023/10/28 07:26:08;;;;;;;21.37;11.50;;;;;;;-141.97;nan;47695.91;5051245;28;20177;-79
2023/10/28 07:28:35;;;;;;;20.40;11.77;;;;;;;-141.97;nan;47715.13;5051124;28;20162;-79
2023/10/28 07:31:01;;;;;;;22.03;11.53;;;;;;;-141.97;nan;47661.31;5059553;28;20177;-79
2023/10/28 07:33:27;;;;;;;22.87;12.20;;;;;;;-141.97;nan;47722.81;5073316;28;20207;-79
2023/10/28 07:35:53;;;;;;;23.20;12.13;;;;;;;-141.97;nan;47720.91;5088178;28;20165;-78
2023/10/28 07:38:19;;;;;;;23.40;11.40;;;;;;;-141.97;nan;47644.00;5074195;28;20526;-79
2023/10/28 07:40:45;;;;;;;21.13;11.40;;;;;;;-141.97;nan;47684.38;5039142;28;20169;-79
2023/10/28 07:43:11;;;;;;;23.07;11.53;;;;;;;-141.97;nan;47670.91;5032630;28;20170;-78
2023/10/28 07:45:39;;;;;;;19.00;10.80;;;;;;;-141.97;nan;47684.38;5033292;28;20237;-78
2023/10/28 07:48:06;;;;;;;22.73;11.80;;;;;;;-141.97;nan;47690.16;5053946;28;21292;-79
2023/10/28 07:50:33;;;;;;;19.57;11.07;;;;;;;-141.97;nan;47688.22;5067431;28;20181;-76
2023/10/28 07:52:59;;;;;;;23.23;11.60;;;;;;;-141.97;nan;47588.28;5070567;28;20219;-79
2023/10/28 07:55:24;;;;;;;18.17;10.67;;;;;;;-141.97;nan;47653.63;5053059;28;20178;-78
2023/10/28 07:57:50;;;;;;;21.53;11.37;;;;;;;-141.97;nan;47607.50;5050145;28;20575;-78
2023/10/28 08:00:15;;;;;;;21.03;12.07;;;;;;;-141.97;nan;47676.69;5050672;28;20610;-77
2023/10/28 08:02:44;;;;;;;20.50;11.47;;;;;;;-141.97;nan;47686.31;5051468;28;20172;-77
2023/10/28 08:05:10;;;;;;;20.43;11.53;;;;;;;-141.97;nan;47776.63;5051207;28;20170;-77
2023/10/28 08:07:36;;;;;;;20.20;11.30;;;;;;;-141.97;nan;47644.00;5032732;28;20176;-77
2023/10/28 08:10:02;;;;;;;23.00;11.50;;;;;;;-141.97;nan;47649.78;5039632;28;20320;-77
2023/10/28 08:12:27;;;;;;;23.07;11.57;;;;;;;-141.97;nan;47649.78;5051487;28;20280;-77
2023/10/28 08:14:53;;;;;;;21.97;11.53;;;;;;;-141.97;nan;47640.16;5050357;28;20165;-77
2023/10/28 08:17:18;;;;;;;21.57;11.87;;;;;;;-141.97;nan;47526.75;5050085;28;20696;-78
2023/10/28 08:19:44;;;;;;;25.67;11.70;;;;;;;-141.97;nan;47644.00;5049563;28;20188;-77
2023/10/28 08:22:12;;;;;;;20.90;11.60;;;;;;;-141.97;nan;47599.81;5050160;28;20685;-78
2023/10/28 08:24:37;;;;;;;20.00;11.50;;;;;;;-141.97;nan;47578.66;5050419;28;20219;-78
2023/10/28 08:27:03;;;;;;;22.10;11.57;;;;;;;-141.97;nan;47657.47;5050126;28;20165;-79
2023/10/28 08:29:29;;;;;;;23.67;12.30;;;;;;;-141.97;nan;47603.66;5049815;28;20177;-77
2023/10/28 08:31:54;;;;;;;31.40;14.77;;;;;;;-141.97;nan;47644.00;5052877;28;20197;-78
2023/10/28 08:34:19;;;;;;;22.45;11.82;;;;;;;-141.97;nan;47503.69;5049627;28;20255;-79
2023/10/28 08:36:45;;;;;;;20.20;10.93;;;;;;;-141.97;nan;47563.28;5032193;28;20175;-78
2023/10/28 08:39:13;;;;;;;24.73;13.50;;;;;;;-141.97;nan;47511.38;5051120;28;20674;-79
2023/10/28 08:41:41;;;;;;;21.00;11.38;;;;;;;-141.97;nan;47532.53;5049620;28;20193;-79
2023/10/28 08:44:07;;;;;;;24.38;11.82;;;;;;;-141.97;nan;47559.44;5032516;28;20180;-78
2023/10/28 08:46:33;;;;;;;22.10;12.77;;;;;;;-141.97;nan;47549.84;5050017;28;20228;-78
2023/10/28 08:49:00;;;;;;;21.58;11.63;;;;;;;-141.97;nan;47536.38;5049588;28;20182;-77
2023/10/28 08:51:25;;;;;;;20.92;11.13;;;;;;;-141.97;nan;47590.19;5031624;28;20178;-78
2023/10/28 08:53:59;;;;;;;18.90;10.75;;;;;;;-141.97;nan;47565.22;5032269;28;20267;-78
2023/10/28 08:56:26;;;;;;;20.40;11.30;;;;;;;-141.97;nan;47515.22;5049257;28;20176;-78
2023/10/28 08:58:52;;;;;;;17.75;11.07;;;;;;;-141.97;nan;47580.59;5050637;28;20545;-79
2023/10/28 09:01:22;;;;;;;21.52;11.50;;;;;;;-141.97;nan;47538.28;5050426;28;20229;-79
2023/10/28 09:03:54;;;;;;;19.88;11.10;;;;;;;-141.97;nan;47797.78;5032297;28;21076;-78
2023/10/28 09:06:20;;;;;;;20.25;11.20;;;;;;;-141.97;nan;47542.16;5049982;28;20175;-77
2023/10/28 09:08:46;;;;;;;19.17;11.45;;;;;;;-141.97;nan;47526.75;5040422;28;20226;-78
2023/10/28 09:11:12;;;;;;;18.95;10.60;;;;;;;-141.97;nan;47572.91;5049089;28;20613;-78
2023/10/28 09:13:41;;;;;;;21.27;11.32;;;;;;;-141.97;nan;47551.75;5049697;28;20199;-78
2023/10/28 09:16:07;;;;;;;22.33;11.73;;;;;;;-141.97;nan;47551.75;5049948;28;20289;-78
2023/10/28 09:18:39;;;;;;;27.80;11.25;;;;;;;-141.97;nan;47638.25;5049286;28;20176;-78
2023/10/28 09:21:09;;;;;;;22.55;11.80;;;;;;;-141.97;nan;47522.91;5049400;28;20578;-78
2023/10/28 09:23:39;;;;;;;23.65;10.82;;;;;;;-141.97;nan;47536.38;5053761;28;20591;-78
2023/10/28 09:26:05;;;;;;;20.45;12.13;;;;;;;-141.97;nan;47534.44;5053082;28;20200;-77
2023/10/28 09:28:31;;;;;;;26.27;10.88;;;;;;;-141.97;nan;47565.22;5053888;28;20253;-78
2023/10/28 09:30:58;;;;;;;17.92;10.95;;;;;;;-141.97;nan;47559.44;5062183;28;20173;-79
2023/10/28 09:33:23;;;;;;;23.90;12.23;;;;;;;-141.97;nan;47549.84;5073119;28;20681;-79
2023/10/28 09:35:54;;;;;;;20.55;10.57;;;;;;;-141.97;nan;47524.84;5065963;28;20242;-79
2023/10/28 09:38:20;;;;;;;16.95;10.60;;;;;;;-141.97;nan;47530.59;5036323;28;20508;-78
2023/10/28 09:40:49;;;;;;;18.77;9.95;;;;;;;-141.97;nan;47521.00;5053906;28;20257;-78
2023/10/28 09:43:15;;;;;;;19.98;10.18;;;;;;;-141.97;nan;47540.22;5039466;28;20177;-78
2023/10/28 09:45:41;;;;;;;18.90;9.85;;;;;;;-141.97;nan;47547.91;5059189;28;20192;-78
2023/10/28 09:48:16;;;;;;;17.85;9.68;;;;;;;-141.97;nan;47449.88;5052886;28;20185;-78
2023/10/28 09:50:48;;;;;;;20.95;9.70;;;;;;;-141.97;nan;47546.00;5055942;28;20259;-80
2023/10/28 09:53:16;;;;;;;18.08;9.52;;;;;;;-141.97;nan;47544.06;5035688;28;20212;-79
2023/10/28 09:55:44;;;;;;;16.00;8.95;;;;;;;-141.97;nan;47486.41;5035154;28;20169;-79
2023/10/28 09:58:18;;;;;;;18.98;8.57;;;;;;;-141.97;nan;47544.06;5053448;28;20508;-77
2023/10/28 10:00:48;;;;;;;19.50;8.73;;;;;;;-141.97;nan;47430.66;5055171;28;20294;-79
2023/10/28 10:03:44;;;;;;;19.90;10.73;;;;;;;-141.97;nan;47515.22;5052652;28;20169;-79
2023/10/28 10:06:11;;;;;;;12.63;7.97;;;;;;;-141.97;nan;47507.53;5055326;28;20181;-78
2023/10/28 10:08:47;;;;;;;20.10;8.38;;;;;;;-141.97;nan;47546.00;5052635;28;20183;-78
2023/10/28 10:11:12;;;;;;;14.32;8.40;;;;;;;-141.97;nan;47426.81;5042424;28;20266;-78
2023/10/28 10:13:43;;;;;;;15.80;8.02;;;;;;;-141.97;nan;47463.34;5035266;28;20200;-77
2023/10/28 10:16:36;;;;;;;15.35;7.68;;;;;;;-141.97;nan;47653.63;5053454;28;20628;-80
2023/10/28 10:19:08;;;;;;;12.38;7.50;;;;;;;-141.97;nan;47511.38;5063473;28;20169;-78
2023/10/28 10:21:33;;;;;;;14.15;7.65;;;;;;;-141.97;nan;47446.03;5065558;28;20183;-79
2023/10/28 10:24:04;;;;;;;13.70;7.70;;;;;;;-141.97;nan;47519.06;5077381;28;20181;-78
2023/10/28 10:26:34;;;;;;;13.18;7.28;;;;;;;-141.97;nan;47522.91;5075184;28;20168;-78
2023/10/28 10:29:03;;;;;;;10.38;6.38;;;;;;;-141.97;nan;47517.16;5072358;28;20204;-78
2023/10/28 10:31:35;;;;;;;10.50;5.88;;;;;;;-141.97;nan;47655.53;5064246;28;20644;-78
2023/10/28 10:34:08;;;;;;;10.43;6.03;;;;;;;-141.97;nan;47507.53;5051698;28;20221;-78
2023/10/28 10:36:40;;;;;;;16.30;6.30;;;;;;;-141.97;nan;47507.53;5035385;28;20203;-78
2023/10/28 10:39:20;;;;;;;16.45;6.80;;;;;;;-141.97;nan;47463.34;5054536;28;20228;-79
2023/10/28 10:41:54;;;;;;;10.32;6.32;;;;;;;-141.97;nan;47488.31;5056202;28;20192;-79
2023/10/28 10:44:37;;;;;;;14.88;7.20;;;;;;;-141.97;nan;47494.09;5052808;28;20174;-78
2023/10/28 10:47:05;;;;;;;11.20;6.20;;;;;;;-141.97;nan;47438.34;5053598;28;20177;-78
2023/10/28 10:49:31;;;;;;;13.75;6.38;;;;;;;-141.97;nan;47476.78;5052195;28;20490;-79
2023/10/28 10:52:01;;;;;;;15.35;6.70;;;;;;;-141.97;nan;47496.00;5051655;28;20200;-78
2023/10/28 10:54:35;;;;;;;10.43;6.25;;;;;;;-141.97;nan;47521.00;5051978;28;20199;-78
2023/10/28 10:57:04;;;;;;;13.63;6.53;;;;;;;-141.97;nan;47561.38;5052668;28;20184;-77
2023/10/28 10:59:32;;;;;;;13.63;6.53;;;;;;;-141.97;nan;47582.50;5034517;28;20183;-75
2023/10/28 11:02:00;;;;;;;13.38;6.18;;;;;;;-141.97;nan;47488.31;5033472;28;20184;-77
2023/10/28 11:04:26;;;;;;;12.60;6.78;;;;;;;-141.97;nan;47580.59;5034122;28;20179;-78
2023/10/28 11:06:52;;;;;;;11.50;6.70;;;;;;;-141.97;nan;47501.78;5052271;28;20168;-78
2023/10/28 11:09:18;;;;;;;15.88;6.85;;;;;;;-141.97;nan;47492.16;5042083;28;20162;-78
2023/10/28 11:11:44;;;;;;;10.20;6.75;;;;;;;-141.97;nan;47507.53;5051560;28;20177;-77
2023/10/28 11:14:09;;;;;;;12.25;6.90;;;;;;;-141.97;nan;47490.25;5051701;28;20169;-78
2023/10/28 11:16:35;;;;;;;21.08;6.28;;;;;;;-141.97;nan;47476.78;5033185;28;20953;-78